Baileyton, Tennessee
Current Conditions -  °F | °C
As of 5:53 AM on Wednesday 26 Nov 2014 (Local Time) from KTRI Reporting Station
Moderate Rain Moderate Rain  
Wind Chill: 40°   Ceiling: 2600
Heat Index: 40°   Visibility: 6mi
Dew Point: 39°   Wind: 0mph
Humidity: 97%   Direction: NA
Pressure: 29.97"   Gusts: NA
Location:  36.1774°N, 82.8035°W
Report Text: KTRI 261053Z 00000KT 6SM RA BR OVC026 04/04 A2997 RMK AO2 SLP143 P0007 T00440039
Loading
Personal Weather Stations






























Interactive Weather Map New forecast layout! Learn more

10-Day Weather Forecast

Advertisements
Track Severe Weather on mobile